Time;durP1;ratioP1;P1;durP2;ratioP2;P2;SDS_P1;SDS_P2;PMS_P1;PMS_P2;Temp;Humidity;BMP_temperature;BMP_pressure;BME280_temperature;BME280_humidity;BME280_pressure;Samples;Min_cycle;Max_cycle;Signal;HPM_P1;HPM_P2
2021/04/09 00:01:29;;;;;;;12.10;10.50;;;2.60;99.90;;;;;;5093848;28;20184;-67
2021/04/09 00:03:57;;;;;;;12.43;9.87;;;2.60;99.90;;;;;;5106604;28;20494;-68
2021/04/09 00:06:22;;;;;;;13.40;10.47;;;2.60;99.90;;;;;;5095551;28;20166;-67
2021/04/09 00:08:48;;;;;;;10.77;9.70;;;2.60;99.90;;;;;;5092583;28;20418;-67
2021/04/09 00:11:14;;;;;;;12.60;11.00;;;2.50;99.90;;;;;;5095771;28;20794;-67
2021/04/09 00:13:39;;;;;;;12.60;9.97;;;2.50;99.90;;;;;;5112962;28;20171;-67
2021/04/09 00:16:05;;;;;;;12.10;9.40;;;2.40;99.90;;;;;;5098377;28;20620;-67
2021/04/09 00:18:30;;;;;;;14.80;9.37;;;2.40;99.90;;;;;;5095148;28;20172;-67
2021/04/09 00:20:56;;;;;;;14.00;10.50;;;2.30;99.90;;;;;;5104687;28;20888;-67
2021/04/09 00:23:22;;;;;;;9.70;8.30;;;2.20;99.90;;;;;;5104425;28;20790;-67
2021/04/09 00:25:47;;;;;;;12.20;9.10;;;2.20;99.90;;;;;;5101759;28;20560;-67
2021/04/09 00:28:13;;;;;;;13.13;9.30;;;2.10;99.90;;;;;;5092388;28;20216;-67
2021/04/09 00:30:38;;;;;;;9.87;8.10;;;2.10;99.90;;;;;;5110884;28;20231;-67
2021/04/09 00:33:04;;;;;;;10.50;8.17;;;2.10;99.90;;;;;;5101214;28;20671;-67
2021/04/09 00:35:30;;;;;;;10.63;7.90;;;2.10;99.90;;;;;;5103297;28;20226;-67
2021/04/09 00:37:55;;;;;;;10.10;8.17;;;2.10;99.90;;;;;;5092042;28;20517;-67
2021/04/09 00:40:21;;;;;;;8.73;7.73;;;2.10;99.90;;;;;;5104644;28;20677;-67
2021/04/09 00:42:47;;;;;;;9.33;7.50;;;2.10;99.90;;;;;;5095028;28;20167;-67
2021/04/09 00:45:14;;;;;;;8.97;8.07;;;2.00;99.90;;;;;;5107573;28;20192;-67
2021/04/09 00:47:40;;;;;;;12.37;7.23;;;2.00;99.90;;;;;;5091746;28;20176;-67
2021/04/09 00:50:06;;;;;;;12.33;7.00;;;2.00;99.90;;;;;;5092225;28;20489;-67
2021/04/09 00:52:34;;;;;;;10.27;7.13;;;2.00;99.90;;;;;;5092781;28;20441;-67
2021/04/09 00:55:01;;;;;;;9.80;7.40;;;1.90;99.90;;;;;;5093267;28;20465;-67
2021/04/09 00:57:27;;;;;;;13.20;8.10;;;2.00;99.90;;;;;;5110668;28;20487;-69
2021/04/09 00:59:53;;;;;;;9.50;7.50;;;1.90;99.90;;;;;;5098946;28;20861;-69
2021/04/09 01:02:19;;;;;;;7.63;6.83;;;1.90;99.90;;;;;;5093199;28;20446;-69
2021/04/09 01:04:44;;;;;;;6.83;5.90;;;1.90;99.90;;;;;;5109900;28;20183;-69
2021/04/09 01:07:10;;;;;;;11.20;7.50;;;1.90;99.90;;;;;;5107461;28;20186;-69
2021/04/09 01:09:36;;;;;;;7.73;6.23;;;1.90;99.90;;;;;;5101602;28;20291;-69
2021/04/09 01:12:03;;;;;;;8.63;7.30;;;1.80;99.90;;;;;;5101356;28;20171;-70
2021/04/09 01:14:29;;;;;;;8.80;6.40;;;1.80;99.90;;;;;;5093902;28;20204;-70
2021/04/09 01:17:06;;;;;;;11.10;6.27;;;1.90;99.90;;;;;;5098955;28;20517;-69
2021/04/09 01:20:10;;;;;;;9.93;6.83;;;1.90;99.90;;;;;;5103986;28;20236;-70
2021/04/09 01:22:47;;;;;;;9.23;7.13;;;1.90;99.90;;;;;;5092647;28;20453;-68
2021/04/09 01:25:39;;;;;;;9.17;6.87;;;1.80;99.90;;;;;;5101033;28;20443;-69
2021/04/09 01:28:24;;;;;;;7.20;6.20;;;1.80;99.90;;;;;;5109860;28;20436;-70
2021/04/09 01:31:15;;;;;;;14.47;8.00;;;1.70;99.90;;;;;;5106812;28;20453;-69
2021/04/09 01:33:48;;;;;;;10.10;7.37;;;1.70;99.90;;;;;;5094348;28;20521;-69
2021/04/09 01:36:22;;;;;;;7.47;6.33;;;1.70;99.90;;;;;;5096751;28;20429;-69
2021/04/09 01:39:04;;;;;;;10.07;6.80;;;1.70;99.90;;;;;;5092669;28;20425;-70
2021/04/09 01:41:30;;;;;;;7.67;6.97;;;1.60;99.90;;;;;;5100494;28;20768;-68
2021/04/09 01:44:00;;;;;;;8.40;6.00;;;1.70;99.90;;;;;;5105117;28;20781;-69
2021/04/09 01:46:27;;;;;;;7.57;6.57;;;1.60;99.90;;;;;;5091564;28;20491;-67
2021/04/09 01:48:54;;;;;;;10.07;6.80;;;1.70;99.90;;;;;;5100149;28;20429;-70
2021/04/09 01:51:20;;;;;;;11.30;6.80;;;1.70;99.90;;;;;;5103287;28;20988;-70
2021/04/09 01:53:47;;;;;;;13.10;6.70;;;1.70;99.90;;;;;;5092480;28;20458;-68
2021/04/09 01:56:17;;;;;;;7.67;5.70;;;1.70;99.90;;;;;;5107814;28;20448;-69
2021/04/09 01:58:43;;;;;;;8.07;6.17;;;1.80;99.90;;;;;;5108533;28;20452;-68
2021/04/09 02:01:11;;;;;;;8.00;6.20;;;1.80;99.90;;;;;;5094921;28;20497;-69
2021/04/09 02:03:39;;;;;;;6.60;5.97;;;1.80;99.90;;;;;;5110476;28;20448;-70
2021/04/09 02:06:05;;;;;;;8.23;6.70;;;1.90;99.90;;;;;;5095767;28;20889;-69
2021/04/09 02:08:34;;;;;;;8.60;6.70;;;1.90;99.90;;;;;;5096821;28;20429;-69
2021/04/09 02:11:00;;;;;;;6.93;5.90;;;2.00;99.90;;;;;;5109717;28;20981;-69
2021/04/09 02:13:27;;;;;;;5.90;5.33;;;2.00;99.90;;;;;;5099276;28;21134;-69
2021/04/09 02:15:55;;;;;;;7.60;6.30;;;2.10;99.90;;;;;;5105888;28;20820;-69
2021/04/09 02:18:21;;;;;;;7.30;5.87;;;2.10;99.90;;;;;;5097068;28;20826;-69
2021/04/09 02:20:48;;;;;;;10.23;5.47;;;2.00;99.90;;;;;;5105119;28;20456;-70
2021/04/09 02:23:14;;;;;;;6.93;4.70;;;2.10;99.90;;;;;;5096891;28;20429;-69
2021/04/09 02:25:39;;;;;;;8.23;6.00;;;2.10;99.90;;;;;;5095769;28;20955;-68
2021/04/09 02:28:06;;;;;;;10.67;5.83;;;2.10;99.90;;;;;;5111048;28;20171;-70
2021/04/09 02:30:31;;;;;;;9.40;5.77;;;2.10;99.90;;;;;;5096970;28;20196;-70
2021/04/09 02:32:57;;;;;;;8.50;5.00;;;2.10;99.90;;;;;;5104713;28;20497;-70
2021/04/09 02:35:22;;;;;;;8.53;5.90;;;2.10;99.90;;;;;;5098513;28;20200;-69
2021/04/09 02:37:50;;;;;;;8.03;5.87;;;2.10;99.90;;;;;;5099668;28;20204;-68
2021/04/09 02:40:25;;;;;;;6.57;5.00;;;2.10;99.90;;;;;;5109487;28;20283;-67
2021/04/09 02:42:52;;;;;;;6.20;5.63;;;2.10;99.90;;;;;;5094488;28;20463;-65
2021/04/09 02:45:19;;;;;;;9.37;5.60;;;2.10;99.90;;;;;;5105482;28;20455;-68
2021/04/09 02:47:46;;;;;;;6.93;4.90;;;2.10;99.90;;;;;;5111100;28;20859;-66
2021/04/09 02:50:29;;;;;;;6.20;4.87;;;2.10;99.90;;;;;;5097445;28;20465;-67
2021/04/09 02:53:01;;;;;;;5.70;5.10;;;2.10;99.90;;;;;;5100215;28;20429;-69
2021/04/09 02:55:30;;;;;;;6.43;5.70;;;2.10;99.90;;;;;;5099122;28;20453;-67
2021/04/09 02:57:56;;;;;;;8.53;6.00;;;2.10;99.90;;;;;;5113765;28;20436;-67
2021/04/09 03:00:23;;;;;;;7.83;5.30;;;2.10;99.90;;;;;;5101566;28;20453;-67
2021/04/09 03:02:50;;;;;;;6.73;6.07;;;2.10;99.90;;;;;;5095495;28;20440;-68
2021/04/09 03:05:18;;;;;;;6.30;5.67;;;2.10;99.90;;;;;;5110424;28;20429;-67
2021/04/09 03:07:45;;;;;;;12.50;6.20;;;2.00;99.90;;;;;;5093988;28;20437;-69
2021/04/09 03:10:14;;;;;;;7.40;6.30;;;2.10;99.90;;;;;;5104228;28;20518;-70
2021/04/09 03:12:41;;;;;;;13.63;6.40;;;2.10;99.90;;;;;;5105834;27;20465;-69
2021/04/09 03:15:09;;;;;;;7.90;6.00;;;2.10;99.90;;;;;;5093450;28;20452;-67
2021/04/09 03:17:43;;;;;;;8.30;6.73;;;2.00;99.90;;;;;;5100240;28;20426;-69
2021/04/09 03:20:09;;;;;;;7.83;6.63;;;2.00;99.90;;;;;;5105156;28;20949;-69
2021/04/09 03:22:34;;;;;;;10.07;5.43;;;2.00;99.90;;;;;;5113480;28;20450;-69
2021/04/09 03:25:00;;;;;;;6.83;5.93;;;2.10;99.90;;;;;;5093877;28;20897;-69
2021/04/09 03:27:26;;;;;;;8.03;5.53;;;2.00;99.90;;;;;;5102405;28;20179;-69
2021/04/09 03:29:52;;;;;;;9.00;5.83;;;2.00;99.90;;;;;;5111880;28;20748;-69
2021/04/09 03:32:18;;;;;;;6.27;5.67;;;2.00;99.90;;;;;;5099045;28;20179;-69
2021/04/09 03:34:43;;;;;;;6.60;5.63;;;2.10;99.90;;;;;;5094968;28;20188;-69
2021/04/09 03:37:09;;;;;;;5.93;5.33;;;2.10;99.90;;;;;;5100806;28;20172;-69
2021/04/09 03:39:36;;;;;;;11.23;5.97;;;2.00;99.90;;;;;;5112136;28;20449;-70
2021/04/09 03:42:02;;;;;;;6.80;6.10;;;2.00;99.90;;;;;;5098190;28;20645;-68
2021/04/09 03:44:28;;;;;;;10.77;5.90;;;2.00;99.90;;;;;;5093955;28;20442;-69
2021/04/09 03:46:54;;;;;;;8.03;6.47;;;2.00;99.90;;;;;;5107852;28;20529;-69
2021/04/09 03:49:19;;;;;;;12.73;5.70;;;2.00;99.90;;;;;;5100098;28;20222;-70
2021/04/09 03:51:45;;;;;;;7.40;5.57;;;2.00;99.90;;;;;;5112147;28;20611;-69
2021/04/09 03:54:11;;;;;;;6.47;5.67;;;2.00;99.90;;;;;;5109313;28;20227;-68
2021/04/09 03:56:37;;;;;;;6.40;5.73;;;2.00;99.90;;;;;;5110447;28;20182;-70
2021/04/09 03:59:02;;;;;;;8.23;6.33;;;2.00;99.90;;;;;;5097216;28;20429;-69
2021/04/09 04:01:29;;;;;;;9.13;6.10;;;1.90;99.90;;;;;;5104355;28;20168;-70
2021/04/09 04:03:55;;;;;;;9.27;7.03;;;2.00;99.90;;;;;;5107629;28;20264;-68
2021/04/09 04:06:21;;;;;;;11.20;6.90;;;2.00;99.90;;;;;;5111169;28;20468;-68
2021/04/09 04:08:47;;;;;;;9.17;6.50;;;2.00;99.90;;;;;;5099397;28;20551;-68
2021/04/09 04:11:13;;;;;;;8.67;6.27;;;2.00;99.90;;;;;;5099974;28;20453;-68
2021/04/09 04:13:38;;;;;;;8.23;6.20;;;2.00;99.90;;;;;;5100581;28;20426;-70
2021/04/09 04:16:04;;;;;;;8.20;6.70;;;2.00;99.90;;;;;;5107416;28;20207;-69
2021/04/09 04:18:29;;;;;;;10.30;7.13;;;2.00;99.90;;;;;;5107088;28;20174;-70
2021/04/09 04:20:55;;;;;;;8.07;6.90;;;2.00;99.90;;;;;;5095158;28;20191;-70
2021/04/09 04:23:21;;;;;;;12.70;6.17;;;2.00;99.90;;;;;;5100884;28;20225;-67
2021/04/09 04:25:46;;;;;;;7.00;5.80;;;2.00;99.90;;;;;;5107484;28;20653;-70
2021/04/09 04:28:12;;;;;;;9.20;6.70;;;2.00;99.90;;;;;;5102165;28;20638;-69
2021/04/09 04:30:37;;;;;;;13.23;6.53;;;2.00;99.90;;;;;;5096684;28;20202;-70
2021/04/09 04:33:03;;;;;;;8.37;6.60;;;2.00;99.90;;;;;;5111267;28;20215;-69
2021/04/09 04:35:29;;;;;;;10.70;6.37;;;2.00;99.90;;;;;;5093805;28;20708;-69
2021/04/09 04:37:55;;;;;;;12.60;7.07;;;2.00;99.90;;;;;;5093668;28;20684;-68
2021/04/09 04:40:20;;;;;;;7.87;7.07;;;2.00;99.90;;;;;;5091745;28;20459;-68
2021/04/09 04:42:46;;;;;;;8.53;7.63;;;2.00;99.90;;;;;;5095504;28;20643;-68
2021/04/09 04:45:12;;;;;;;10.70;7.83;;;2.00;99.90;;;;;;5110110;28;20192;-68
2021/04/09 04:47:38;;;;;;;7.53;6.73;;;2.00;99.90;;;;;;5110248;28;20312;-68
2021/04/09 04:50:05;;;;;;;8.50;7.70;;;2.00;99.90;;;;;;5105923;28;20192;-68
2021/04/09 04:52:30;;;;;;;10.20;7.47;;;2.00;99.90;;;;;;5091103;28;20484;-68
2021/04/09 04:54:56;;;;;;;8.80;7.57;;;2.10;99.90;;;;;;5091513;28;20446;-68
2021/04/09 04:57:21;;;;;;;9.70;7.27;;;2.10;99.90;;;;;;5092233;28;20603;-69
2021/04/09 04:59:47;;;;;;;10.50;7.10;;;2.20;99.90;;;;;;5110437;28;20195;-69
2021/04/09 05:02:13;;;;;;;11.70;8.47;;;2.20;99.90;;;;;;5102355;28;20258;-68
2021/04/09 05:04:38;;;;;;;11.53;7.70;;;2.20;99.90;;;;;;5109837;27;20179;-68
2021/04/09 05:07:04;;;;;;;8.60;7.33;;;2.30;99.90;;;;;;5109301;27;20251;-68
2021/04/09 05:09:29;;;;;;;11.97;7.90;;;2.30;99.90;;;;;;5114321;27;20190;-68
2021/04/09 05:11:55;;;;;;;11.80;7.57;;;2.40;99.90;;;;;;5111499;28;20531;-68
2021/04/09 05:14:20;;;;;;;14.07;7.90;;;2.40;99.90;;;;;;5094000;28;20206;-68
2021/04/09 05:16:46;;;;;;;9.60;7.57;;;2.50;99.90;;;;;;5099515;28;20255;-68
2021/04/09 05:19:11;;;;;;;8.77;7.70;;;2.60;99.90;;;;;;5109151;28;20600;-68
2021/04/09 05:21:38;;;;;;;9.30;7.47;;;2.70;99.90;;;;;;5094526;28;20684;-69
2021/04/09 05:24:04;;;;;;;9.20;7.40;;;2.80;99.90;;;;;;5101314;28;20192;-68
2021/04/09 05:26:29;;;;;;;13.23;8.87;;;2.90;99.90;;;;;;5091511;28;20454;-68
2021/04/09 05:28:55;;;;;;;15.03;9.47;;;3.00;99.90;;;;;;5092286;28;20437;-69
2021/04/09 05:31:20;;;;;;;12.57;8.60;;;3.10;99.90;;;;;;5106312;28;20199;-68
2021/04/09 05:33:46;;;;;;;10.83;7.40;;;3.20;99.90;;;;;;5094750;28;20554;-68
2021/04/09 05:36:11;;;;;;;9.90;7.93;;;3.40;99.90;;;;;;5091068;28;20829;-68
2021/04/09 05:38:37;;;;;;;12.20;9.43;;;3.40;99.90;;;;;;5110310;28;20183;-69
2021/04/09 05:41:02;;;;;;;11.87;8.70;;;3.60;99.90;;;;;;5108611;28;20196;-70
2021/04/09 05:43:28;;;;;;;11.53;8.00;;;3.70;99.90;;;;;;5094768;28;20218;-68
2021/04/09 05:45:53;;;;;;;14.03;10.40;;;3.70;99.90;;;;;;5091195;28;20273;-68
2021/04/09 05:48:19;;;;;;;11.97;9.23;;;3.80;99.90;;;;;;5097522;28;20205;-69
2021/04/09 05:50:45;;;;;;;11.20;8.77;;;4.00;99.90;;;;;;5113538;28;20752;-69
2021/04/09 05:53:10;;;;;;;13.43;8.23;;;4.00;99.90;;;;;;5109961;27;20523;-69
2021/04/09 05:55:36;;;;;;;12.43;8.60;;;4.30;99.90;;;;;;5112279;27;20222;-69
2021/04/09 05:58:02;;;;;;;9.60;8.07;;;4.50;99.90;;;;;;5112096;28;20171;-69
2021/04/09 06:00:27;;;;;;;13.50;9.67;;;4.70;99.90;;;;;;5101794;28;20206;-68
2021/04/09 06:02:54;;;;;;;19.97;11.80;;;4.80;99.90;;;;;;5101213;28;20188;-68
2021/04/09 06:05:19;;;;;;;11.03;8.53;;;5.10;99.90;;;;;;5105709;28;20180;-69
2021/04/09 06:07:45;;;;;;;9.83;8.70;;;5.40;99.90;;;;;;5104631;28;20979;-69
2021/04/09 06:10:11;;;;;;;10.07;7.57;;;5.60;99.90;;;;;;5111314;28;20278;-69
2021/04/09 06:12:38;;;;;;;10.43;7.80;;;5.80;99.90;;;;;;5113686;28;20270;-68
2021/04/09 06:15:07;;;;;;;13.33;9.03;;;5.90;99.90;;;;;;5095554;28;20884;-69
2021/04/09 06:17:32;;;;;;;15.23;9.00;;;6.10;99.90;;;;;;5098333;28;20414;-68
2021/04/09 06:19:58;;;;;;;11.17;8.27;;;6.30;99.90;;;;;;5098521;28;20459;-69
2021/04/09 06:22:23;;;;;;;13.93;8.70;;;6.50;99.90;;;;;;5115310;28;20182;-69
2021/04/09 06:24:49;;;;;;;11.40;8.60;;;6.60;99.90;;;;;;5101968;28;20236;-68
2021/04/09 06:27:14;;;;;;;14.53;7.77;;;6.60;99.90;;;;;;5112623;28;20178;-68
2021/04/09 06:29:40;;;;;;;9.57;7.60;;;6.40;99.90;;;;;;5124893;27;20233;-68
2021/04/09 06:32:06;;;;;;;14.23;6.97;;;6.20;99.90;;;;;;5118089;27;20194;-68
2021/04/09 06:34:32;;;;;;;8.83;7.00;;;6.20;99.90;;;;;;5109682;28;20441;-69
2021/04/09 06:36:57;;;;;;;11.07;7.33;;;6.40;99.90;;;;;;5099216;28;20455;-69
2021/04/09 06:39:23;;;;;;;6.97;6.37;;;6.60;99.90;;;;;;5097921;28;20202;-68
2021/04/09 06:41:49;;;;;;;12.30;6.77;;;6.70;99.90;;;;;;5094213;28;20650;-69
2021/04/09 06:44:17;;;;;;;8.90;6.30;;;6.80;99.90;;;;;;5103021;28;20176;-68
2021/04/09 06:46:43;;;;;;;8.03;6.30;;;6.80;99.90;;;;;;5090213;28;20490;-68
2021/04/09 06:49:10;;;;;;;7.37;6.63;;;6.90;99.90;;;;;;5092579;28;20425;-68
2021/04/09 06:51:36;;;;;;;9.50;6.60;;;6.90;99.90;;;;;;5101016;28;20445;-68
2021/04/09 06:54:02;;;;;;;6.47;5.87;;;7.00;99.90;;;;;;5097510;28;21145;-68
2021/04/09 06:56:29;;;;;;;7.10;5.10;;;7.20;99.90;;;;;;5102631;28;20442;-68
2021/04/09 06:58:56;;;;;;;7.30;4.53;;;7.50;99.90;;;;;;5097458;28;21001;-68
2021/04/09 07:01:23;;;;;;;6.60;4.03;;;7.80;98.30;;;;;;5092566;28;20499;-68
2021/04/09 07:03:49;;;;;;;6.73;4.00;;;8.00;96.40;;;;;;5099399;28;20445;-68
2021/04/09 07:06:15;;;;;;;5.17;4.03;;;8.10;95.50;;;;;;5096019;28;20440;-68
2021/04/09 07:08:41;;;;;;;5.00;4.40;;;8.20;95.60;;;;;;5095144;28;20184;-68
2021/04/09 07:11:08;;;;;;;4.90;4.40;;;8.30;94.30;;;;;;5102562;28;20672;-68
2021/04/09 07:13:46;;;;;;;5.73;4.03;;;8.20;94.20;;;;;;5097445;28;20483;-68
2021/04/09 07:16:12;;;;;;;8.00;4.70;;;8.20;94.00;;;;;;5106812;28;20464;-68
2021/04/09 07:18:54;;;;;;;5.90;4.70;;;8.20;94.10;;;;;;5104026;28;20433;-68
2021/04/09 07:21:34;;;;;;;4.80;4.33;;;8.30;93.30;;;;;;5101077;28;20528;-68
2021/04/09 07:24:17;;;;;;;5.70;4.40;;;8.40;93.20;;;;;;5097849;28;20486;-68
2021/04/09 07:26:53;;;;;;;6.93;4.70;;;8.40;93.10;;;;;;5098323;28;20437;-68
2021/04/09 07:29:35;;;;;;;5.83;5.33;;;8.50;92.80;;;;;;5108356;28;20780;-68
2021/04/09 07:32:09;;;;;;;10.70;5.13;;;8.70;92.00;;;;;;5106862;28;20437;-68
2021/04/09 07:34:59;;;;;;;5.70;4.40;;;8.80;92.30;;;;;;5100552;28;20803;-68
2021/04/09 07:37:26;;;;;;;5.53;5.00;;;9.30;91.90;;;;;;5093598;28;20434;-68
2021/04/09 07:40:00;;;;;;;7.00;5.23;;;9.20;90.40;;;;;;5097633;28;20452;-68
2021/04/09 07:42:33;;;;;;;5.73;4.37;;;9.20;90.20;;;;;;5097779;28;20422;-68
2021/04/09 07:45:02;;;;;;;7.47;5.00;;;9.10;89.70;;;;;;5089059;28;534916;-68
2021/04/09 07:47:28;;;;;;;9.37;5.20;;;9.10;90.60;;;;;;5099974;28;20189;-68
2021/04/09 07:50:30;;;;;;;6.20;4.90;;;9.30;90.00;;;;;;5095029;28;20480;-68
2021/04/09 07:52:55;;;;;;;6.20;4.63;;;9.70;89.80;;;;;;5099264;28;20235;-68
2021/04/09 07:55:23;;;;;;;7.37;5.70;;;10.00;88.10;;;;;;5105598;28;20950;-68
2021/04/09 07:57:49;;;;;;;7.40;4.60;;;10.20;86.20;;;;;;5109583;28;20174;-68
2021/04/09 08:00:18;;;;;;;7.30;4.47;;;10.20;85.50;;;;;;5102891;28;20451;-68
2021/04/09 08:02:44;;;;;;;4.70;4.13;;;10.30;85.30;;;;;;5108731;28;20433;-68
2021/04/09 08:05:13;;;;;;;5.87;4.93;;;10.20;85.00;;;;;;5102377;28;20433;-68
2021/04/09 08:07:41;;;;;;;6.87;5.13;;;10.30;84.80;;;;;;5094494;28;20449;-68
2021/04/09 08:10:07;;;;;;;8.00;5.30;;;10.60;84.60;;;;;;5092424;28;20450;-68
2021/04/09 08:12:34;;;;;;;5.50;5.00;;;10.60;82.60;;;;;;5095048;28;20465;-68
2021/04/09 08:15:24;;;;;;;6.87;4.80;;;10.50;81.90;;;;;;5105256;28;20468;-68
2021/04/09 08:18:00;;;;;;;5.60;5.10;;;10.60;81.30;;;;;;5106777;28;20425;-68
2021/04/09 08:20:26;;;;;;;6.70;5.17;;;10.60;80.50;;;;;;5108029;28;20937;-68
2021/04/09 08:22:55;;;;;;;5.33;4.53;;;10.50;79.70;;;;;;5104285;28;20487;-68
2021/04/09 08:25:21;;;;;;;12.10;4.97;;;10.80;79.60;;;;;;5094711;28;20449;-68
2021/04/09 08:27:47;;;;;;;5.60;5.10;;;11.00;78.90;;;;;;5106382;28;20429;-68
2021/04/09 08:30:14;;;;;;;5.60;4.93;;;11.00;77.00;;;;;;5107257;28;20243;-68
2021/04/09 08:32:40;;;;;;;6.47;4.80;;;10.90;75.20;;;;;;5106684;28;20184;-68
2021/04/09 08:35:09;;;;;;;3.93;3.53;;;10.80;74.80;;;;;;5104380;28;21005;-68
2021/04/09 08:37:36;;;;;;;7.77;4.97;;;11.00;75.50;;;;;;5106224;28;20547;-68
2021/04/09 08:40:03;;;;;;;4.93;4.50;;;11.20;74.20;;;;;;5106094;28;20449;-68
2021/04/09 08:42:31;;;;;;;6.37;4.70;;;11.10;72.10;;;;;;5100584;28;20524;-68
2021/04/09 08:45:01;;;;;;;6.40;4.77;;;10.80;72.10;;;;;;5091265;28;20456;-68
2021/04/09 08:47:28;;;;;;;6.27;4.13;;;10.70;72.10;;;;;;5100049;28;20776;-68
2021/04/09 08:49:55;;;;;;;5.97;4.13;;;10.80;72.40;;;;;;5090631;28;21049;-68
2021/04/09 08:52:21;;;;;;;4.97;4.47;;;10.80;70.40;;;;;;5102090;28;20440;-68
2021/04/09 08:54:52;;;;;;;5.33;4.60;;;10.70;72.50;;;;;;5090814;28;20563;-68
2021/04/09 08:57:35;;;;;;;6.50;4.70;;;10.70;72.60;;;;;;5098357;28;20429;-68
2021/04/09 09:00:13;;;;;;;6.63;4.00;;;10.80;72.70;;;;;;5102301;28;21022;-68
2021/04/09 09:03:19;;;;;;;5.30;4.37;;;10.80;71.20;;;;;;5104689;28;20440;-68
2021/04/09 09:05:57;;;;;;;4.50;4.10;;;10.90;70.70;;;;;;5091952;28;20438;-68
2021/04/09 09:08:23;;;;;;;5.60;4.30;;;10.90;69.10;;;;;;5100117;28;21192;-68
2021/04/09 09:10:48;;;;;;;5.20;4.13;;;10.90;68.60;;;;;;5091032;28;20454;-68
2021/04/09 09:13:22;;;;;;;7.43;4.07;;;11.00;70.10;;;;;;5093627;28;20179;-68
2021/04/09 09:15:54;;;;;;;5.73;4.33;;;11.10;68.40;;;;;;5098849;28;20222;-67
2021/04/09 09:18:23;;;;;;;5.90;3.77;;;11.30;67.60;;;;;;5103844;28;20437;-67
2021/04/09 09:21:09;;;;;;;3.73;3.40;;;11.40;67.30;;;;;;5102132;28;20456;-68
2021/04/09 09:23:43;;;;;;;5.17;4.37;;;11.40;66.40;;;;;;5096110;28;20426;-68
2021/04/09 09:26:28;;;;;;;6.10;5.60;;;11.20;65.70;;;;;;5092274;28;20445;-68
2021/04/09 09:29:09;;;;;;;6.97;4.60;;;11.30;66.40;;;;;;5094337;28;20437;-68
2021/04/09 09:31:37;;;;;;;6.47;5.20;;;11.30;66.10;;;;;;5094497;28;20498;-68
2021/04/09 09:34:21;;;;;;;6.80;5.30;;;11.50;67.00;;;;;;5102694;28;20437;-68
2021/04/09 09:37:14;;;;;;;5.07;4.27;;;11.80;66.00;;;;;;5092491;28;20456;-68
2021/04/09 09:39:43;;;;;;;3.97;3.40;;;12.10;64.50;;;;;;5099981;28;20565;-68
2021/04/09 09:42:21;;;;;;;7.23;4.07;;;12.40;64.10;;;;;;5100604;28;20445;-68
2021/04/09 09:44:49;;;;;;;5.00;4.20;;;12.60;62.70;;;;;;5100459;28;20472;-70
2021/04/09 09:47:33;;;;;;;4.87;3.80;;;12.80;60.00;;;;;;5105660;28;20803;-67
2021/04/09 09:50:04;;;;;;;7.17;4.10;;;12.90;58.70;;;;;;5108304;28;20949;-68
2021/04/09 09:53:07;;;;;;;3.97;3.70;;;12.90;59.20;;;;;;5108374;28;20500;-68
2021/04/09 09:55:32;;;;;;;4.17;3.87;;;12.90;59.70;;;;;;5108029;28;20464;-68
2021/04/09 09:58:10;;;;;;;4.73;3.73;;;12.90;58.10;;;;;;5108164;28;20482;-67
2021/04/09 10:00:44;;;;;;;3.97;3.57;;;13.00;57.80;;;;;;5107497;28;20689;-67
2021/04/09 10:03:14;;;;;;;3.60;3.30;;;13.20;57.80;;;;;;5107906;28;20421;-67
2021/04/09 10:05:42;;;;;;;5.17;3.60;;;13.40;58.00;;;;;;5107708;28;20425;-67
2021/04/09 10:08:07;;;;;;;4.67;3.40;;;13.40;57.40;;;;;;5107934;28;20417;-67
2021/04/09 10:10:53;;;;;;;4.87;3.73;;;13.50;57.00;;;;;;5107685;28;20444;-67
2021/04/09 10:13:30;;;;;;;4.63;4.13;;;13.80;56.80;;;;;;5107923;28;20185;-67
2021/04/09 10:16:09;;;;;;;4.57;4.13;;;14.00;56.20;;;;;;5107547;28;20575;-67
2021/04/09 10:18:36;;;;;;;5.07;4.40;;;14.40;56.70;;;;;;5107245;28;20450;-68
2021/04/09 10:21:16;;;;;;;4.67;3.47;;;14.60;56.10;;;;;;5109979;28;20441;-66
2021/04/09 10:23:45;;;;;;;4.60;4.20;;;14.80;54.50;;;;;;5096832;28;20525;-68
2021/04/09 10:26:12;;;;;;;4.47;3.80;;;15.00;54.40;;;;;;5108169;28;20934;-67
2021/04/09 10:28:39;;;;;;;4.87;4.47;;;15.30;53.80;;;;;;5111024;28;20437;-66
2021/04/09 10:31:19;;;;;;;6.77;4.00;;;15.20;53.30;;;;;;5100173;28;20457;-67
2021/04/09 10:33:47;;;;;;;8.03;3.80;;;15.30;53.40;;;;;;5092303;28;20504;-67
2021/04/09 10:36:27;;;;;;;3.57;3.27;;;15.60;53.10;;;;;;5091369;28;20480;-68
2021/04/09 10:38:58;;;;;;;4.00;3.60;;;15.20;52.40;;;;;;5098984;28;20935;-67
2021/04/09 10:41:31;;;;;;;6.30;4.17;;;14.70;53.10;;;;;;5110025;28;20449;-67
2021/04/09 10:44:03;;;;;;;3.77;3.40;;;14.50;54.50;;;;;;5102421;28;20429;-67
2021/04/09 10:46:33;;;;;;;4.93;4.07;;;14.40;53.90;;;;;;5108671;28;20432;-66
2021/04/09 10:49:01;;;;;;;6.30;4.27;;;14.20;53.80;;;;;;5101928;28;20417;-69
2021/04/09 10:51:28;;;;;;;5.63;4.40;;;14.00;54.60;;;;;;5105677;27;20437;-68
2021/04/09 10:53:55;;;;;;;6.90;3.60;;;13.90;54.20;;;;;;5108331;28;20558;-68
2021/04/09 10:56:21;;;;;;;5.47;4.17;;;13.90;55.10;;;;;;5102560;28;20814;-66
2021/04/09 10:58:47;;;;;;;7.50;3.83;;;13.70;54.80;;;;;;5107512;28;20433;-67
2021/04/09 11:01:13;;;;;;;5.93;3.40;;;13.40;55.20;;;;;;5106525;28;20453;-67
2021/04/09 11:03:39;;;;;;;4.20;3.80;;;13.50;56.10;;;;;;5106169;28;20437;-67
2021/04/09 11:06:04;;;;;;;6.43;4.37;;;13.80;55.90;;;;;;5108948;28;20541;-67
2021/04/09 11:08:39;;;;;;;7.73;4.00;;;14.10;55.80;;;;;;5109570;28;20179;-68
2021/04/09 11:11:14;;;;;;;4.23;3.33;;;14.10;55.00;;;;;;5109524;28;20474;-68
2021/04/09 11:13:42;;;;;;;4.50;3.83;;;14.10;55.40;;;;;;5107947;28;20536;-68
2021/04/09 11:16:10;;;;;;;4.60;4.00;;;14.20;54.90;;;;;;5101528;28;20452;-68
2021/04/09 11:18:55;;;;;;;5.40;4.40;;;14.20;54.10;;;;;;5113498;28;20782;-68
2021/04/09 11:21:43;;;;;;;6.40;3.87;;;14.40;56.40;;;;;;5109040;28;20448;-68
2021/04/09 11:24:20;;;;;;;4.03;3.63;;;14.40;55.00;;;;;;5102408;28;20424;-70
2021/04/09 11:26:46;;;;;;;5.00;4.60;;;14.30;54.40;;;;;;5103306;28;20425;-70
2021/04/09 11:29:20;;;;;;;5.43;4.97;;;14.40;54.80;;;;;;5104808;28;20454;-67
2021/04/09 11:31:46;;;;;;;4.80;3.60;;;14.50;54.20;;;;;;5093659;28;20633;-67
2021/04/09 11:34:12;;;;;;;3.73;3.33;;;14.60;53.90;;;;;;5093275;28;20422;-67
2021/04/09 11:36:42;;;;;;;3.83;3.50;;;14.80;54.60;;;;;;5093658;28;20164;-67
2021/04/09 11:39:20;;;;;;;5.03;3.80;;;14.90;53.20;;;;;;5101626;28;20247;-67
2021/04/09 11:41:56;;;;;;;3.83;3.53;;;15.00;53.00;;;;;;5106177;28;20437;-67
2021/04/09 11:44:29;;;;;;;4.27;3.20;;;15.30;52.50;;;;;;5099365;28;20873;-68
2021/04/09 11:47:13;;;;;;;3.70;3.43;;;15.50;51.10;;;;;;5095830;28;20444;-68
2021/04/09 11:49:38;;;;;;;4.60;3.60;;;15.60;51.50;;;;;;5101419;28;20599;-68
2021/04/09 11:52:06;;;;;;;4.60;3.80;;;15.60;51.40;;;;;;5104401;28;20512;-68
2021/04/09 11:54:34;;;;;;;5.80;3.87;;;15.80;51.10;;;;;;5092637;28;20196;-67
2021/04/09 11:57:01;;;;;;;5.43;5.03;;;16.20;50.50;;;;;;5103224;28;20436;-68
2021/04/09 11:59:31;;;;;;;4.03;3.23;;;16.40;50.60;;;;;;5110769;22;20486;-64
2021/04/09 12:01:57;;;;;;;4.17;3.77;;;17.00;48.80;;;;;;5068760;28;20518;-66
2021/04/09 12:04:35;;;;;;;3.30;3.00;;;17.30;47.60;;;;;;5068248;28;20519;-65
2021/04/09 12:07:02;;;;;;;3.73;3.30;;;18.20;46.40;;;;;;5067817;28;20176;-66
2021/04/09 12:09:28;;;;;;;5.60;3.80;;;20.30;44.10;;;;;;5062183;28;20545;-64
2021/04/09 12:11:54;;;;;;;6.47;3.07;;;22.60;41.20;;;;;;5046917;28;20529;-66
2021/04/09 12:14:41;;;;;;;6.40;3.80;;;23.90;36.60;;;;;;5047814;28;20186;-65
2021/04/09 12:17:09;;;;;;;5.77;3.57;;;22.30;37.00;;;;;;5048544;28;20461;-64
2021/04/09 12:19:35;;;;;;;4.00;3.70;;;21.80;37.90;;;;;;5047065;28;20464;-65
2021/04/09 12:22:01;;;;;;;2.67;2.47;;;22.10;37.80;;;;;;5048091;28;20443;-64
2021/04/09 12:24:27;;;;;;;3.70;2.83;;;22.70;37.00;;;;;;5048265;28;20431;-65
2021/04/09 12:26:52;;;;;;;3.07;2.87;;;22.40;36.20;;;;;;5047775;28;20615;-64
2021/04/09 12:29:18;;;;;;;3.23;2.90;;;21.40;37.00;;;;;;5048187;28;20225;-64
2021/04/09 12:31:43;;;;;;;3.40;3.10;;;20.30;36.90;;;;;;5048819;28;20545;-66
2021/04/09 12:34:09;;;;;;;2.60;2.40;;;20.00;37.70;;;;;;5047237;28;20748;-64
2021/04/09 12:36:38;;;;;;;3.50;3.20;;;20.90;38.00;;;;;;5047352;28;20268;-65
2021/04/09 12:39:10;;;;;;;3.20;2.90;;;21.60;36.40;;;;;;5047029;28;20273;-66
2021/04/09 12:41:36;;;;;;;3.50;2.80;;;20.80;37.00;;;;;;5047584;28;20427;-64
2021/04/09 12:44:04;;;;;;;4.13;2.70;;;21.00;38.20;;;;;;5047374;28;20448;-65
2021/04/09 12:46:30;;;;;;;3.17;2.97;;;22.40;36.60;;;;;;5047808;28;20209;-65
2021/04/09 12:48:56;;;;;;;2.90;2.70;;;23.50;34.90;;;;;;5043310;28;20478;-67
2021/04/09 12:51:22;;;;;;;3.23;2.40;;;23.60;34.20;;;;;;5037003;28;20174;-65
2021/04/09 12:53:48;;;;;;;4.40;2.70;;;23.40;33.40;;;;;;5038018;28;20236;-65
2021/04/09 12:56:19;;;;;;;3.13;2.40;;;22.90;33.50;;;;;;5045467;28;20502;-65
2021/04/09 12:58:45;;;;;;;3.33;3.00;;;22.80;34.40;;;;;;5048058;28;20428;-64
2021/04/09 13:01:11;;;;;;;3.50;2.93;;;23.00;33.70;;;;;;5046404;28;20469;-64